NCAR-RAP Real-Time Weather Data

Output produced by METARs form (30 April 2017  15:02 UTC)
found at http://weather.rap.ucar.edu/surface/
 
Conditions at: KMCO observed 30 April 2017  14:53 UTC
Temperature: 26.1°C (79°F)
Dewpoint: 20.6°C (69°F) [RH = 72%]
Pressure (altimeter): 30.13 inches Hg (1020.4 mb)
[Sea-level pressure: 1020.2 mb]
Winds: from the SE (140 degrees) at 13 MPH (11 knots; 5.7 m/s)
Visibility: 10 or more miles (16+ km)
Ceiling: 15000 feet AGL
Clouds: scattered clouds at 2800 feet AGL
broken clouds at 15000 feet AGL
overcast cloud deck at 25000 feet AGL
Present Weather:
SOME DATA ABOVE MAY BE INACCURATE!!!
"$" is an indication the sensor requires maintenance
KMCO 301453Z 14011KT 10SM SCT028 BKN150 OVC250 26/21 A3013 RMK AO2 SLP202 T02610206 55004 $

Conditions at: KMCO observed 30 April 2017  13:53 UTC
Temperature: 25.6°C (78°F)
Dewpoint: 20.6°C (69°F) [RH = 74%]
Pressure (altimeter): 30.12 inches Hg (1020.1 mb)
[Sea-level pressure: 1019.8 mb]
Winds: from the SE (140 degrees) at 17 MPH (15 knots; 7.8 m/s)
Visibility: 10 or more miles (16+ km)
Ceiling: 15000 feet AGL
Clouds: scattered clouds at 1900 feet AGL
scattered clouds at 5000 feet AGL
broken clouds at 15000 feet AGL
overcast cloud deck at 25000 feet AGL
Present Weather:
SOME DATA ABOVE MAY BE INACCURATE!!!
"$" is an indication the sensor requires maintenance
KMCO 301353Z 14015KT 10SM SCT019 SCT050 BKN150 OVC250 26/21 A3012 RMK AO2 SLP198 T02560206 $

Conditions at: KMCO observed 30 April 2017  12:53 UTC
Temperature: 24.4°C (76°F)
Dewpoint: 21.7°C (71°F) [RH = 85%]
Pressure (altimeter): 30.13 inches Hg (1020.4 mb)
[Sea-level pressure: 1020.2 mb]
Winds: from the SE (130 degrees) at 10 MPH (9 knots; 4.7 m/s)
Visibility: 10 or more miles (16+ km)
Ceiling: 15000 feet AGL
Clouds: few clouds at 2000 feet AGL
few clouds at 5000 feet AGL
broken clouds at 15000 feet AGL
overcast cloud deck at 25000 feet AGL
Present Weather:
SOME DATA ABOVE MAY BE INACCURATE!!!
"$" is an indication the sensor requires maintenance
KMCO 301253Z 13009KT 10SM FEW020 FEW050 BKN150 OVC250 24/22 A3013 RMK AO2 SLP202 T02440217 $

Conditions at: KMCO observed 30 April 2017  11:53 UTC
Temperature: 21.7°C (71°F)
Dewpoint: 21.7°C (71°F) [RH = 100%]
Pressure (altimeter): 30.15 inches Hg (1021.1 mb)
[Sea-level pressure: 1020.7 mb]
Winds: from the SE (130 degrees) at 5 MPH (4 knots; 2.1 m/s)
Visibility: 10 or more miles (16+ km)
Ceiling: 15000 feet AGL
Clouds: few clouds at 2200 feet AGL
few clouds at 7000 feet AGL
broken clouds at 15000 feet AGL
overcast cloud deck at 25000 feet AGL
Present Weather:
SOME DATA ABOVE MAY BE INACCURATE!!!
"$" is an indication the sensor requires maintenance
KMCO 301153Z 13004KT 10SM FEW022 FEW070 BKN150 OVC250 22/22 A3015 RMK AO2 SLP207 T02170217 10228 20217 53011 $

Conditions at: KMCO observed 30 April 2017  10:53 UTC
Temperature: 21.7°C (71°F)
Dewpoint: 21.7°C (71°F) [RH = 100%]
Pressure (altimeter): 30.13 inches Hg (1020.4 mb)
[Sea-level pressure: 1020.2 mb]
Winds: from the ESE (120 degrees) at 6 MPH (5 knots; 2.6 m/s)
Visibility: 10 or more miles (16+ km)
Ceiling: 25000 feet AGL
Clouds: few clouds at 2500 feet AGL
scattered clouds at 7000 feet AGL
overcast cloud deck at 25000 feet AGL
Present Weather:
SOME DATA ABOVE MAY BE INACCURATE!!!
"$" is an indication the sensor requires maintenance
KMCO 301053Z 12005KT 10SM FEW025 SCT070 OVC250 22/22 A3013 RMK AO2 SLP202 T02170217 $

Conditions at: KMCO observed 30 April 2017  09:53 UTC
Temperature: 21.7°C (71°F)
Dewpoint: 21.7°C (71°F) [RH = 100%]
Pressure (altimeter): 30.11 inches Hg (1019.7 mb)
[Sea-level pressure: 1019.5 mb]
Winds: from the SE (130 degrees) at 7 MPH (6 knots; 3.1 m/s)
Visibility: 10 or more miles (16+ km)
Ceiling: 25000 feet AGL
Clouds: scattered clouds at 7000 feet AGL
overcast cloud deck at 25000 feet AGL
Present Weather:
SOME DATA ABOVE MAY BE INACCURATE!!!
"$" is an indication the sensor requires maintenance
KMCO 300953Z 13006KT 10SM SCT070 OVC250 22/22 A3011 RMK AO2 SLP195 T02170217 $

Conditions at: KMCO observed 30 April 2017  08:53 UTC
Temperature: 22.2°C (72°F)
Dewpoint: 21.7°C (71°F) [RH = 97%]
Pressure (altimeter): 30.11 inches Hg (1019.7 mb)
[Sea-level pressure: 1019.5 mb]
Winds: from the SE (130 degrees) at 7 MPH (6 knots; 3.1 m/s)
Visibility: 10 or more miles (16+ km)
Ceiling: 7000 feet AGL
Clouds: few clouds at 2200 feet AGL
broken clouds at 7000 feet AGL
overcast cloud deck at 25000 feet AGL
Present Weather:
SOME DATA ABOVE MAY BE INACCURATE!!!
"$" is an indication the sensor requires maintenance
KMCO 300853Z 13006KT 10SM FEW022 BKN070 OVC250 22/22 A3011 RMK AO2 SLP195 T02220217 $

Conditions at: KMCO observed 30 April 2017  07:53 UTC
Temperature: 22.2°C (72°F)
Dewpoint: 21.7°C (71°F) [RH = 97%]
Pressure (altimeter): 30.10 inches Hg (1019.4 mb)
[Sea-level pressure: 1019.0 mb]
Winds: from the ESE (120 degrees) at 8 MPH (7 knots; 3.6 m/s)
Visibility: 10 or more miles (16+ km)
Ceiling: 25000 feet AGL
Clouds: few clouds at 2400 feet AGL
scattered clouds at 7000 feet AGL
overcast cloud deck at 25000 feet AGL
Present Weather:
SOME DATA ABOVE MAY BE INACCURATE!!!
"$" is an indication the sensor requires maintenance
KMCO 300753Z 12007KT 10SM FEW024 SCT070 OVC250 22/22 A3010 RMK AO2 SLP190 T02220217 $

Conditions at: KMCO observed 30 April 2017  06:53 UTC
Temperature: 22.8°C (73°F)
Dewpoint: 22.2°C (72°F) [RH = 96%]
Pressure (altimeter): 30.11 inches Hg (1019.7 mb)
[Sea-level pressure: 1019.3 mb]
Winds: from the ESE (120 degrees) at 9 MPH (8 knots; 4.2 m/s)
Visibility: 10 or more miles (16+ km)
Ceiling: 25000 feet AGL
Clouds: few clouds at 2400 feet AGL
few clouds at 10000 feet AGL
overcast cloud deck at 25000 feet AGL
Present Weather: no significant weather observed at this time
KMCO 300653Z 12008KT 10SM FEW024 FEW100 OVC250 23/22 A3011 RMK SLP193 T02280222

Conditions at: KMCO observed 30 April 2017  06:24 UTC
Temperature: 22.8°C (73°F)
Dewpoint: 22.2°C (72°F) [RH = 96%]
Pressure (altimeter): 30.11 inches Hg (1019.7 mb)
Winds: from the SE (130 degrees) at 10 MPH (9 knots; 4.7 m/s)
Visibility: 10 or more miles (16+ km)
Ceiling: 2400 feet AGL
Clouds: broken clouds at 2400 feet AGL
overcast cloud deck at 25000 feet AGL
Present Weather: no significant weather observed at this time
KMCO 300624Z 13009KT 10SM BKN024 OVC250 23/22 A3011 RMK T02280222

Conditions at: KMCO observed 30 April 2017  05:55 UTC
Temperature: 24.0°C (75°F)
Dewpoint: 22.0°C (72°F) [RH = 89%]
Pressure (altimeter): 30.12 inches Hg (1020.1 mb)
Winds: from the ESE (120 degrees) at 8 MPH (7 knots; 3.6 m/s)
Visibility: 10 or more miles (16+ km)
Ceiling: 25000 feet AGL
Clouds: scattered clouds at 2500 feet AGL
overcast cloud deck at 25000 feet AGL
Present Weather: no significant weather observed at this time
KMCO 300555Z 12007KT 10SM SCT025 OVC250 24/22 A3012

Conditions at: KMCO observed 30 April 2017  04:54 UTC
Temperature: 24.0°C (75°F)
Dewpoint: 22.0°C (72°F) [RH = 89%]
Pressure (altimeter): missing
Winds: from the ESE (120 degrees) at 6 MPH (5 knots; 2.6 m/s)
Visibility: 10 or more miles (16+ km)
Ceiling: 25000 feet AGL
Clouds: few clouds at 7000 feet AGL
overcast cloud deck at 25000 feet AGL
Present Weather: no significant weather observed at this time
KMCO 300454Z 12005KT 10SM FEW070 OVC250 24/22

Conditions at: KMCO observed 30 April 2017  03:53 UTC
Temperature: 22.8°C (73°F)
Dewpoint: 21.7°C (71°F) [RH = 94%]
Pressure (altimeter): 30.14 inches Hg (1020.7 mb)
[Sea-level pressure: 1020.6 mb]
Winds: from the ESE (120 degrees) at 9 MPH (8 knots; 4.2 m/s)
Visibility: 10 or more miles (16+ km)
Ceiling: 25000 feet AGL
Clouds: few clouds at 2000 feet AGL
few clouds at 7000 feet AGL
broken clouds at 25000 feet AGL
Present Weather: no significant weather observed at this time
KMCO 300353Z 12008KT 10SM FEW020 FEW070 BKN250 23/22 A3014 RMK SLP206 T02280217

Conditions at: KMCO observed 30 April 2017  02:53 UTC
Temperature: 23.3°C (74°F)
Dewpoint: 21.7°C (71°F) [RH = 91%]
Pressure (altimeter): 30.14 inches Hg (1020.7 mb)
[Sea-level pressure: 1020.6 mb]
Winds: from the ESE (110 degrees) at 10 MPH (9 knots; 4.7 m/s)
Visibility: 10 or more miles (16+ km)
Ceiling: 25000 feet AGL
Clouds: few clouds at 2000 feet AGL
scattered clouds at 7000 feet AGL
broken clouds at 25000 feet AGL
Present Weather: no significant weather observed at this time
KMCO 300253Z 11009KT 10SM FEW020 SCT070 BKN250 23/22 A3014 RMK AO2 SLP206 T02330217 51012

Conditions at: KMCO observed 30 April 2017  01:53 UTC
Temperature: 23.9°C (75°F)
Dewpoint: 21.7°C (71°F) [RH = 88%]
Pressure (altimeter): 30.14 inches Hg (1020.7 mb)
[Sea-level pressure: 1020.3 mb]
Winds: from the ESE (110 degrees) at 13 MPH (11 knots; 5.7 m/s)
Visibility: 10 or more miles (16+ km)
Ceiling: at least 12,000 feet AGL
Clouds: few clouds at 25000 feet AGL
Present Weather: no significant weather observed at this time
KMCO 300153Z 11011KT 10SM FEW250 24/22 A3014 RMK AO2 SLP203 T02390217

Conditions at: KMCO observed 30 April 2017  00:53 UTC
Temperature: 24.4°C (76°F)
Dewpoint: 21.1°C (70°F) [RH = 82%]
Pressure (altimeter): 30.13 inches Hg (1020.4 mb)
[Sea-level pressure: 1020.0 mb]
Winds: from the ESE (110 degrees) at 13 MPH (11 knots; 5.7 m/s)
Visibility: 10 or more miles (16+ km)
Ceiling: at least 12,000 feet AGL
Clouds: few clouds at 25000 feet AGL
Present Weather: no significant weather observed at this time
KMCO 300053Z 11011KT 10SM FEW250 24/21 A3013 RMK AO2 SLP200 T02440211

Conditions at: KMCO observed 29 April 2017  23:53 UTC
Temperature: 26.1°C (79°F)
Dewpoint: 20.0°C (68°F) [RH = 69%]
Pressure (altimeter): 30.11 inches Hg (1019.7 mb)
[Sea-level pressure: 1019.4 mb]
Winds: from the ESE (110 degrees) at 15 MPH (13 knots; 6.8 m/s)
Visibility: 10 or more miles (16+ km)
Ceiling: 25000 feet AGL
Clouds: few clouds at 3000 feet AGL
broken clouds at 25000 feet AGL
Present Weather: no significant weather observed at this time
KMCO 292353Z 11013KT 10SM FEW030 BKN250 26/20 A3011 RMK AO2 SLP194 T02610200 10328 20261 53003

Conditions at: KMCO observed 29 April 2017  22:53 UTC
Temperature: 28.3°C (83°F)
Dewpoint: 19.4°C (67°F) [RH = 59%]
Pressure (altimeter): 30.10 inches Hg (1019.4 mb)
[Sea-level pressure: 1019.2 mb]
Winds: from the E (90 degrees) at 15 MPH (13 knots; 6.8 m/s)
Visibility: 10 or more miles (16+ km)
Ceiling: at least 12,000 feet AGL
Clouds: few clouds at 4000 feet AGL
scattered clouds at 25000 feet AGL
Present Weather: no significant weather observed at this time
KMCO 292253Z 09013KT 10SM FEW040 SCT250 28/19 A3010 RMK AO2 SLP192 T02830194

Conditions at: KMCO observed 29 April 2017  21:53 UTC
Temperature: 30.0°C (86°F)
Dewpoint: 18.3°C (65°F) [RH = 50%]
Pressure (altimeter): 30.10 inches Hg (1019.4 mb)
[Sea-level pressure: 1019.2 mb]
Winds: from the E (100 degrees) at 14 MPH (12 knots; 6.2 m/s)
Visibility: 10 or more miles (16+ km)
Ceiling: at least 12,000 feet AGL
Clouds: few clouds at 5000 feet AGL
few clouds at 25000 feet AGL
Present Weather: no significant weather observed at this time
KMCO 292153Z 10012KT 10SM FEW050 FEW250 30/18 A3010 RMK AO2 SLP192 T03000183

Conditions at: KMCO observed 29 April 2017  20:53 UTC
Temperature: 31.1°C (88°F)
Dewpoint: 17.8°C (64°F) [RH = 45%]
Pressure (altimeter): 30.10 inches Hg (1019.4 mb)
[Sea-level pressure: 1019.1 mb]
Winds: from the E (100 degrees) at 18 MPH (16 knots; 8.3 m/s)
gusting to 24 MPH (21 knots; 10.9 m/s)
Visibility: 10 or more miles (16+ km)
Ceiling: at least 12,000 feet AGL
Clouds: few clouds at 5500 feet AGL
few clouds at 25000 feet AGL
Present Weather: no significant weather observed at this time
KMCO 292053Z 10016G21KT 10SM FEW055 FEW250 31/18 A3010 RMK AO2 PK WND 09026/2035 SLP191 T03110178 56012

Conditions at: KMCO observed 29 April 2017  19:53 UTC
Temperature: 31.7°C (89°F)
Dewpoint: 17.2°C (63°F) [RH = 42%]
Pressure (altimeter): 30.10 inches Hg (1019.4 mb)
[Sea-level pressure: 1019.1 mb]
Winds: from the E (90 degrees) at 18 MPH (16 knots; 8.3 m/s)
gusting to 28 MPH (24 knots; 12.5 m/s)
Visibility: 10 or more miles (16+ km)
Ceiling: at least 12,000 feet AGL
Clouds: few clouds at 6000 feet AGL
scattered clouds at 25000 feet AGL
Present Weather: no significant weather observed at this time
KMCO 291953Z 09016G24KT 10SM FEW060 SCT250 32/17 A3010 RMK AO2 SLP191 T03170172

Conditions at: KMCO observed 29 April 2017  18:53 UTC
Temperature: 32.2°C (90°F)
Dewpoint: 17.2°C (63°F) [RH = 41%]
Pressure (altimeter): 30.12 inches Hg (1020.1 mb)
[Sea-level pressure: 1019.7 mb]
Winds: from the E (100 degrees) at 20 MPH (17 knots; 8.8 m/s)
gusting to 28 MPH (24 knots; 12.5 m/s)
Visibility: 10 or more miles (16+ km)
Ceiling: at least 12,000 feet AGL
Clouds: few clouds at 5000 feet AGL
scattered clouds at 25000 feet AGL
Present Weather: no significant weather observed at this time
KMCO 291853Z 10017G24KT 10SM FEW050 SCT250 32/17 A3012 RMK AO2 SLP197 T03220172

Conditions at: KMCO observed 29 April 2017  17:53 UTC
Temperature: 32.2°C (90°F)
Dewpoint: 18.9°C (66°F) [RH = 45%]
Pressure (altimeter): 30.14 inches Hg (1020.7 mb)
[Sea-level pressure: 1020.3 mb]
Winds: from the E (100 degrees) at 15 MPH (13 knots; 6.8 m/s)
gusting to 25 MPH (22 knots; 11.4 m/s)
Visibility: 10 or more miles (16+ km)
Ceiling: 25000 feet AGL
Clouds: few clouds at 5000 feet AGL
broken clouds at 25000 feet AGL
Present Weather: no significant weather observed at this time
KMCO 291753Z 10013G22KT 10SM FEW050 BKN250 32/19 A3014 RMK AO2 SLP203 T03220189 10322 20228 58012

Conditions at: KMCO observed 29 April 2017  16:53 UTC
Temperature: 31.7°C (89°F)
Dewpoint: 20.0°C (68°F) [RH = 50%]
Pressure (altimeter): 30.15 inches Hg (1021.1 mb)
[Sea-level pressure: 1020.7 mb]
Winds: from the E (80 degrees) at 15 MPH (13 knots; 6.8 m/s)
gusting to 21 MPH (18 knots; 9.4 m/s)
Visibility: 10 or more miles (16+ km)
Ceiling: 25000 feet AGL
Clouds: scattered clouds at 4700 feet AGL
broken clouds at 25000 feet AGL
Present Weather: no significant weather observed at this time
KMCO 291653Z 08013G18KT 10SM SCT047 BKN250 32/20 A3015 RMK AO2 SLP207 T03170200

Conditions at: KMCO observed 29 April 2017  15:53 UTC
Temperature: 30.0°C (86°F)
Dewpoint: 18.9°C (66°F) [RH = 51%]
Pressure (altimeter): 30.16 inches Hg (1021.4 mb)
[Sea-level pressure: 1021.2 mb]
Winds: from the SE (130 degrees) at 13 MPH (11 knots; 5.7 m/s)
Visibility: 10 or more miles (16+ km)
Ceiling: 25000 feet AGL
Clouds: scattered clouds at 4200 feet AGL
broken clouds at 25000 feet AGL
Present Weather: no significant weather observed at this time
KMCO 291553Z 13011KT 10SM SCT042 BKN250 30/19 A3016 RMK AO2 SLP212 T03000189

Conditions at: KMCO observed 29 April 2017  14:53 UTC
Temperature: 28.9°C (84°F)
Dewpoint: 19.4°C (67°F) [RH = 57%]
Pressure (altimeter): 30.17 inches Hg (1021.8 mb)
[Sea-level pressure: 1021.4 mb]
Winds: from the SE (130 degrees) at 9 MPH (8 knots; 4.2 m/s)
gusting to 18 MPH (16 knots; 8.3 m/s)
Visibility: 10 or more miles (16+ km)
Ceiling: 25000 feet AGL
Clouds: scattered clouds at 3500 feet AGL
broken clouds at 25000 feet AGL
Present Weather: no significant weather observed at this time
KMCO 291453Z 13008G16KT 10SM SCT035 BKN250 29/19 A3017 RMK AO2 SLP214 T02890194 53005

Conditions at: KMCO observed 29 April 2017  13:53 UTC
Temperature: 26.1°C (79°F)
Dewpoint: 20.6°C (69°F) [RH = 72%]
Pressure (altimeter): 30.16 inches Hg (1021.4 mb)
[Sea-level pressure: 1021.2 mb]
Winds: from the SE (130 degrees) at 16 MPH (14 knots; 7.3 m/s)
Visibility: 10 or more miles (16+ km)
Ceiling: 25000 feet AGL
Clouds: scattered clouds at 2400 feet AGL
broken clouds at 25000 feet AGL
Present Weather: no significant weather observed at this time
KMCO 291353Z 13014KT 10SM SCT024 BKN250 26/21 A3016 RMK AO2 SLP212 T02610206

Conditions at: KMCO observed 29 April 2017  12:53 UTC
Temperature: 25.6°C (78°F)
Dewpoint: 22.2°C (72°F) [RH = 82%]
Pressure (altimeter): 30.16 inches Hg (1021.4 mb)
[Sea-level pressure: 1021.0 mb]
Winds: from the SE (130 degrees) at 15 MPH (13 knots; 6.8 m/s)
Visibility: 10 or more miles (16+ km)
Ceiling: 25000 feet AGL
Clouds: few clouds at 1400 feet AGL
broken clouds at 25000 feet AGL
Present Weather: no significant weather observed at this time
KMCO 291253Z 13013KT 10SM FEW014 BKN250 26/22 A3016 RMK AO2 SLP210 T02560222

Conditions at: KMCO observed 29 April 2017  11:53 UTC
Temperature: 22.8°C (73°F)
Dewpoint: 22.8°C (73°F) [RH = 100%]
Pressure (altimeter): 30.15 inches Hg (1021.1 mb)
[Sea-level pressure: 1020.9 mb]
Winds: from the ESE (120 degrees) at 9 MPH (8 knots; 4.2 m/s)
Visibility: 10 or more miles (16+ km)
Ceiling: 25000 feet AGL
Clouds: few clouds at 2000 feet AGL
few clouds at 8000 feet AGL
broken clouds at 25000 feet AGL
Present Weather: no significant weather observed at this time
KMCO 291153Z 12008KT 10SM FEW020 FEW080 BKN250 23/23 A3015 RMK AO2 SLP209 T02280228 10228 20217 53012

Conditions at: KMCO observed 29 April 2017  10:53 UTC
Temperature: 21.7°C (71°F)
Dewpoint: 21.7°C (71°F) [RH = 100%]
Pressure (altimeter): 30.14 inches Hg (1020.7 mb)
[Sea-level pressure: 1020.5 mb]
Winds: from the ESE (120 degrees) at 8 MPH (7 knots; 3.6 m/s)
Visibility: 10 or more miles (16+ km)
Ceiling: at least 12,000 feet AGL
Clouds: few clouds at 2000 feet AGL
scattered clouds at 25000 feet AGL
Present Weather: no significant weather observed at this time
KMCO 291053Z 12007KT 10SM FEW020 SCT250 22/22 A3014 RMK AO2 SLP205 T02170217

Conditions at: KMCO observed 29 April 2017  09:53 UTC
Temperature: 22.2°C (72°F)
Dewpoint: 22.2°C (72°F) [RH = 100%]
Pressure (altimeter): 30.12 inches Hg (1020.1 mb)
[Sea-level pressure: 1019.8 mb]
Winds: from the ESE (120 degrees) at 9 MPH (8 knots; 4.2 m/s)
Visibility: 10 or more miles (16+ km)
Ceiling: at least 12,000 feet AGL
Clouds: few clouds at 1700 feet AGL
scattered clouds at 25000 feet AGL
Present Weather: no significant weather observed at this time
KMCO 290953Z 12008KT 10SM FEW017 SCT250 22/22 A3012 RMK AO2 SLP198 T02220222

Conditions at: KMCO observed 29 April 2017  08:53 UTC
Temperature: 22.8°C (73°F)
Dewpoint: 22.8°C (73°F) [RH = 100%]
Pressure (altimeter): 30.12 inches Hg (1020.1 mb)
[Sea-level pressure: 1019.7 mb]
Winds: from the ESE (120 degrees) at 7 MPH (6 knots; 3.1 m/s)
Visibility: 10 or more miles (16+ km)
Ceiling: at least 12,000 feet AGL
Clouds: few clouds at 2000 feet AGL
scattered clouds at 25000 feet AGL
Present Weather: no significant weather observed at this time
KMCO 290853Z 12006KT 10SM FEW020 SCT250 23/23 A3012 RMK AO2 SLP197 T02280228 55004

Conditions at: KMCO observed 29 April 2017  07:53 UTC
Temperature: 22.8°C (73°F)
Dewpoint: 22.8°C (73°F) [RH = 100%]
Pressure (altimeter): 30.11 inches Hg (1019.7 mb)
[Sea-level pressure: 1019.5 mb]
Winds: from the ESE (110 degrees) at 7 MPH (6 knots; 3.1 m/s)
Visibility: 10 or more miles (16+ km)
Ceiling: at least 12,000 feet AGL
Clouds: few clouds at 2000 feet AGL
few clouds at 25000 feet AGL
Present Weather: no significant weather observed at this time
KMCO 290753Z 11006KT 10SM FEW020 FEW250 23/23 A3011 RMK AO2 SLP195 T02280228

Conditions at: KMCO observed 29 April 2017  07:13 UTC
Temperature: 22.8°C (73°F)
Dewpoint: 22.8°C (73°F) [RH = 100%]
Pressure (altimeter): 30.12 inches Hg (1020.1 mb)
Winds: from the ESE (120 degrees) at 8 MPH (7 knots; 3.6 m/s)
Visibility: 10 or more miles (16+ km)
Ceiling: at least 12,000 feet AGL
Clouds: scattered clouds at 2000 feet AGL
Present Weather: no significant weather observed at this time
KMCO 290713Z 12007KT 10SM SCT020 23/23 A3012 RMK AO2 T02280228

Conditions at: KMCO observed 29 April 2017  06:53 UTC
Temperature: 22.8°C (73°F)
Dewpoint: 22.8°C (73°F) [RH = 100%]
Pressure (altimeter): 30.12 inches Hg (1020.1 mb)
[Sea-level pressure: 1019.9 mb]
Winds: from the ESE (110 degrees) at 6 MPH (5 knots; 2.6 m/s)
Visibility: 10 or more miles (16+ km)
Ceiling: 2100 feet AGL
Clouds: broken clouds at 2100 feet AGL
Present Weather: no significant weather observed at this time
KMCO 290653Z 11005KT 10SM BKN021 23/23 A3012 RMK AO2 SLP199 BKN V SCT T02280228

Conditions at: KMCO observed 29 April 2017  05:53 UTC
Temperature: 22.8°C (73°F)
Dewpoint: 22.8°C (73°F) [RH = 100%]
Pressure (altimeter): 30.13 inches Hg (1020.4 mb)
[Sea-level pressure: 1020.1 mb]
Winds: from the ESE (120 degrees) at 7 MPH (6 knots; 3.1 m/s)
Visibility: 10 or more miles (16+ km)
Ceiling: 2000 feet AGL
Clouds: broken clouds at 2000 feet AGL
broken clouds at 25000 feet AGL
Present Weather: no significant weather observed at this time
KMCO 290553Z 12006KT 10SM BKN020 BKN250 23/23 A3013 RMK AO2 SLP201 BKN020 V SCT T02280228 10278 20222 50002

Conditions at: KMCO observed 29 April 2017  05:03 UTC
Temperature: 22.8°C (73°F)
Dewpoint: 22.8°C (73°F) [RH = 100%]
Pressure (altimeter): 30.14 inches Hg (1020.7 mb)
Winds: from the SE (130 degrees) at 6 MPH (5 knots; 2.6 m/s)
Visibility: 10 or more miles (16+ km)
Ceiling: 1800 feet AGL
Clouds: broken clouds at 1800 feet AGL
overcast cloud deck at 25000 feet AGL
Present Weather: no significant weather observed at this time
KMCO 290503Z 13005KT 10SM BKN018 OVC250 23/23 A3014 RMK AO2 T02280228

Conditions at: KMCO observed 29 April 2017  04:53 UTC
Temperature: 22.8°C (73°F)
Dewpoint: 22.2°C (72°F) [RH = 96%]
Pressure (altimeter): 30.14 inches Hg (1020.7 mb)
[Sea-level pressure: 1020.3 mb]
Winds: from the SE (130 degrees) at 6 MPH (5 knots; 2.6 m/s)
Visibility: 10 or more miles (16+ km)
Ceiling: 25000 feet AGL
Clouds: scattered clouds at 1800 feet AGL
overcast cloud deck at 25000 feet AGL
Present Weather: no significant weather observed at this time
KMCO 290453Z 13005KT 10SM SCT018 OVC250 23/22 A3014 RMK AO2 SLP203 SCT V BKN T02280222 403440194

Conditions at: KMCO observed 29 April 2017  03:53 UTC
Temperature: 22.8°C (73°F)
Dewpoint: 22.2°C (72°F) [RH = 96%]
Pressure (altimeter): 30.13 inches Hg (1020.4 mb)
[Sea-level pressure: 1020.1 mb]
Winds: from the ESE (120 degrees) at 8 MPH (7 knots; 3.6 m/s)
Visibility: 10 or more miles (16+ km)
Ceiling: 25000 feet AGL
Clouds: broken clouds at 25000 feet AGL
Present Weather: no significant weather observed at this time
KMCO 290353Z 12007KT 10SM BKN250 23/22 A3013 RMK AO2 SLP201 T02280222

Conditions at: KMCO observed 29 April 2017  02:53 UTC
Temperature: 23.9°C (75°F)
Dewpoint: 21.7°C (71°F) [RH = 88%]
Pressure (altimeter): 30.12 inches Hg (1020.1 mb)
[Sea-level pressure: 1019.9 mb]
Winds: from the ESE (120 degrees) at 8 MPH (7 knots; 3.6 m/s)
Visibility: 10 or more miles (16+ km)
Ceiling: at least 12,000 feet AGL
Clouds: scattered clouds at 25000 feet AGL
Present Weather: no significant weather observed at this time
KMCO 290253Z 12007KT 10SM SCT250 24/22 A3012 RMK AO2 SLP199 T02390217 51020

Conditions at: KMCO observed 29 April 2017  01:53 UTC
Temperature: 25.0°C (77°F)
Dewpoint: 21.7°C (71°F) [RH = 82%]
Pressure (altimeter): 30.11 inches Hg (1019.7 mb)
[Sea-level pressure: 1019.5 mb]
Winds: from the ESE (120 degrees) at 9 MPH (8 knots; 4.2 m/s)
Visibility: 10 or more miles (16+ km)
Ceiling: at least 12,000 feet AGL
Clouds: scattered clouds at 25000 feet AGL
Present Weather: no significant weather observed at this time
KMCO 290153Z 12008KT 10SM SCT250 25/22 A3011 RMK AO2 SLP195 T02500217

Conditions at: KMCO observed 29 April 2017  00:53 UTC
Temperature: 26.1°C (79°F)
Dewpoint: 21.1°C (70°F) [RH = 74%]
Pressure (altimeter): 30.08 inches Hg (1018.7 mb)
[Sea-level pressure: 1018.5 mb]
Winds: from the ESE (120 degrees) at 13 MPH (11 knots; 5.7 m/s)
Visibility: 10 or more miles (16+ km)
Ceiling: 25000 feet AGL
Clouds: broken clouds at 25000 feet AGL
Present Weather: no significant weather observed at this time
KMCO 290053Z 12011KT 10SM BKN250 26/21 A3008 RMK AO2 SLP185 T02610211

Conditions at: KMCO observed 28 April 2017  23:53 UTC
Temperature: 28.3°C (83°F)
Dewpoint: 20.0°C (68°F) [RH = 61%]
Pressure (altimeter): 30.07 inches Hg (1018.4 mb)
[Sea-level pressure: 1017.9 mb]
Winds: from the ESE (110 degrees) at 14 MPH (12 knots; 6.2 m/s)
Visibility: 10 or more miles (16+ km)
Ceiling: 25000 feet AGL
Clouds: broken clouds at 25000 feet AGL
Present Weather: no significant weather observed at this time
KMCO 282353Z 11012KT 10SM BKN250 28/20 A3007 RMK AO2 SLP179 T02830200 10344 20283 53012

Conditions at: KMCO observed 28 April 2017  22:53 UTC
Temperature: 29.4°C (85°F)
Dewpoint: 20.0°C (68°F) [RH = 57%]
Pressure (altimeter): 30.05 inches Hg (1017.7 mb)
[Sea-level pressure: 1017.4 mb]
Winds: from the ESE (120 degrees) at 16 MPH (14 knots; 7.3 m/s)
Visibility: 10 or more miles (16+ km)
Ceiling: 25000 feet AGL
Clouds: broken clouds at 25000 feet AGL
Present Weather: no significant weather observed at this time
KMCO 282253Z 12014KT 10SM BKN250 29/20 A3005 RMK AO2 SLP174 T02940200

Conditions at: KMCO observed 28 April 2017  21:53 UTC
Temperature: 30.6°C (87°F)
Dewpoint: 20.6°C (69°F) [RH = 55%]
Pressure (altimeter): 30.04 inches Hg (1017.4 mb)
[Sea-level pressure: 1017.2 mb]
Winds: from the E (100 degrees) at 18 MPH (16 knots; 8.3 m/s)
Visibility: 10 or more miles (16+ km)
Ceiling: 25000 feet AGL
Clouds: few clouds at 5500 feet AGL
broken clouds at 25000 feet AGL
Present Weather: no significant weather observed at this time
KMCO 282153Z 10016KT 10SM FEW055 BKN250 31/21 A3004 RMK AO2 SLP172 T03060206

Conditions at: KMCO observed 28 April 2017  20:53 UTC
Temperature: 32.8°C (91°F)
Dewpoint: 20.0°C (68°F) [RH = 47%]
Pressure (altimeter): 30.03 inches Hg (1017.0 mb)
[Sea-level pressure: 1016.8 mb]
Winds: from the ESE (120 degrees) at 18 MPH (16 knots; 8.3 m/s)
Visibility: 10 or more miles (16+ km)
Ceiling: 25000 feet AGL
Clouds: few clouds at 5500 feet AGL
broken clouds at 25000 feet AGL
Present Weather: no significant weather observed at this time
KMCO 282053Z 12016KT 10SM FEW055 BKN250 33/20 A3003 RMK AO2 SLP168 T03280200 56010

Conditions at: KMCO observed 28 April 2017  19:53 UTC
Temperature: 33.3°C (92°F)
Dewpoint: 20.0°C (68°F) [RH = 46%]
Pressure (altimeter): 30.03 inches Hg (1017.0 mb)
[Sea-level pressure: 1016.8 mb]
Winds: from the E (90 degrees) at 16 MPH (14 knots; 7.3 m/s)
Visibility: 10 or more miles (16+ km)
Ceiling: 25000 feet AGL
Clouds: scattered clouds at 6000 feet AGL
broken clouds at 25000 feet AGL
Present Weather: no significant weather observed at this time
KMCO 281953Z 09014KT 10SM SCT060 BKN250 33/20 A3003 RMK AO2 SLP168 T03330200

Conditions at: KMCO observed 28 April 2017  18:53 UTC
Temperature: 33.9°C (93°F)
Dewpoint: 17.2°C (63°F) [RH = 37%]
Pressure (altimeter): 30.05 inches Hg (1017.7 mb)
[Sea-level pressure: 1017.3 mb]
Winds: variable direction winds at 7 MPH (6 knots; 3.1 m/s)
gusting to 18 MPH (16 knots; 8.3 m/s)
Visibility: 10 or more miles (16+ km)
Ceiling: 25000 feet AGL
Clouds: scattered clouds at 6000 feet AGL
scattered clouds at 8000 feet AGL
broken clouds at 25000 feet AGL
Present Weather: no significant weather observed at this time
KMCO 281853Z VRB06G16KT 10SM SCT060 SCT080 BKN250 34/17 A3005 RMK AO2 SLP173 T03390172

Conditions at: KMCO observed 28 April 2017  17:53 UTC
Temperature: 33.9°C (93°F)
Dewpoint: 18.3°C (65°F) [RH = 40%]
Pressure (altimeter): 30.06 inches Hg (1018.0 mb)
[Sea-level pressure: 1017.7 mb]
Winds: from the SE (140 degrees) at 15 MPH (13 knots; 6.8 m/s)
gusting to 21 MPH (18 knots; 9.4 m/s)
Visibility: 10 or more miles (16+ km)
Ceiling: 7000 feet AGL
Clouds: scattered clouds at 5000 feet AGL
broken clouds at 7000 feet AGL
broken clouds at 25000 feet AGL
Present Weather: no significant weather observed at this time
KMCO 281753Z 14013G18KT 10SM SCT050 BKN070 BKN250 34/18 A3006 RMK AO2 SLP177 T03390183 10339 20222 58012

Conditions at: KMCO observed 28 April 2017  16:53 UTC
Temperature: 32.8°C (91°F)
Dewpoint: 20.0°C (68°F) [RH = 47%]
Pressure (altimeter): 30.07 inches Hg (1018.4 mb)
[Sea-level pressure: 1018.1 mb]
Winds: from the SSE (160 degrees) at 12 MPH (10 knots; 5.2 m/s)
gusting to 18 MPH (16 knots; 8.3 m/s)
Visibility: 10 or more miles (16+ km)
Ceiling: at least 12,000 feet AGL
Clouds: scattered clouds at 4000 feet AGL
scattered clouds at 25000 feet AGL
Present Weather: no significant weather observed at this time
KMCO 281653Z 16010G16KT 110V190 10SM SCT040 SCT250 33/20 A3007 RMK AO2 SLP181 T03280200

Conditions at: KMCO observed 28 April 2017  15:53 UTC
Temperature: 30.0°C (86°F)
Dewpoint: 21.1°C (70°F) [RH = 59%]
Pressure (altimeter): 30.09 inches Hg (1019.0 mb)
[Sea-level pressure: 1018.7 mb]
Winds: from the SSE (150 degrees) at 13 MPH (11 knots; 5.7 m/s)
Visibility: 10 or more miles (16+ km)
Ceiling: at least 12,000 feet AGL
Clouds: scattered clouds at 3100 feet AGL
scattered clouds at 25000 feet AGL
Present Weather: no significant weather observed at this time
KMCO 281553Z 15011KT 10SM SCT031 SCT250 30/21 A3009 RMK AO2 SLP187 T03000211